MA75 weather

Sky Glen Airport
Uxbridge, Massachusetts, United States

Public forecast

Using degrees Fahrenheit for public forecast. Weather courtesy of forecast.io.

METAR (pilot weather report)

Closest report is North Central State Airport, 9.1 nm (16.9 km) SE. Retrieved 2019/09/19 14:56 UTC (43 minutes ago):

KSFZ 191456Z AUTO 03003KT 10SM CLR 16/07 A3035 RMK AO2 SLP225 T01560067 50001

TAF (pilot weather forecast)

Closest forecast is Worcester Regional Airport, 17.8 nm (33.0 km) NW. Retrieved 2019/09/19 12:48 UTC (3 hours ago):

TAF KORH 191146Z 1912/2012 35006KT P6SM SKC FM200200 26006KT P6SM SKC